Time;durP1;ratioP1;P1;durP2;ratioP2;P2;SDS_P1;SDS_P2;PMS_P1;PMS_P2;Temp;Humidity;BMP_temperature;BMP_pressure;BME280_temperature;BME280_humidity;BME280_pressure;Samples;Min_cycle;Max_cycle;Signal;HPM_P1;HPM_P2
2022/09/05 00:00:00;;;;;;;;;;;;;;;18.14;81.22;101832.97;5036652;28;20011;-47
2022/09/05 00:02:25;;;;;;;;;;;;;;;18.05;82.99;101824.13;5034343;28;19916;-44
2022/09/05 00:04:50;;;;;;;;;;;;;;;17.99;83.12;101822.16;5032672;28;20362;-44
2022/09/05 00:07:34;;;;;;;;;;;;;;;17.96;83.88;101814.47;5037188;28;19919;-45
2022/09/05 00:09:59;;;;;;;;;;;;;;;17.91;83.37;101825.81;5034139;28;20029;-43
2022/09/05 00:12:26;;;;;;;;;;;;;;;17.84;83.02;101817.56;5030527;28;19944;-46
2022/09/05 00:14:53;;;;;;;;;;;;;;;17.82;82.00;101821.47;5035443;28;19923;-45
2022/09/05 00:17:33;;;;;;;;;;;;;;;17.79;83.88;101819.16;5034918;28;20375;-47
2022/09/05 00:20:10;;;;;;;;;;;;;;;17.73;84.44;101817.19;5033978;28;19956;-46
2022/09/05 00:22:41;;;;;;;;;;;;;;;17.69;82.22;101814.03;5033880;28;20283;-44
2022/09/05 00:25:12;;;;;;;;;;;;;;;17.70;83.94;101819.25;5036101;28;19913;-45
2022/09/05 00:27:54;;;;;;;;;;;;;;;17.70;82.63;101818.38;5031781;28;19919;-45
2022/09/05 00:30:20;;;;;;;;;;;;;;;17.69;84.39;101814.84;5023502;28;20036;-47
2022/09/05 00:32:51;;;;;;;;;;;;;;;17.66;87.19;101812.50;5028984;28;20606;-47
2022/09/05 00:35:35;;;;;;;;;;;;;;;17.63;86.07;101812.06;5030371;28;20378;-45
2022/09/05 00:38:10;;;;;;;;;;;;;;;17.62;85.23;101819.31;5023676;28;19978;-47
2022/09/05 00:40:41;;;;;;;;;;;;;;;17.62;85.00;101819.31;5035178;28;19939;-44
2022/09/05 00:43:11;;;;;;;;;;;;;;;17.60;83.16;101818.69;5035975;28;19916;-45
2022/09/05 00:45:42;;;;;;;;;;;;;;;17.58;82.86;101818.00;5035153;28;19924;-48
2022/09/05 00:48:26;;;;;;;;;;;;;;;17.55;84.74;101815.69;5032478;28;20196;-45
2022/09/05 00:51:03;;;;;;;;;;;;;;;17.51;84.23;101817.06;5031521;28;19919;-48
2022/09/05 00:53:43;;;;;;;;;;;;;;;17.52;83.41;101805.25;5034637;28;20276;-45
2022/09/05 00:56:33;;;;;;;;;;;;;;;17.50;85.24;101799.19;5035672;28;19920;-44
2022/09/05 00:59:17;;;;;;;;;;;;;;;17.48;86.55;101803.91;5036091;28;19916;-45
2022/09/05 01:01:47;;;;;;;;;;;;;;;17.45;84.34;101802.44;5026322;28;19991;-41
2022/09/05 01:04:31;;;;;;;;;;;;;;;17.46;85.58;101803.28;5017504;28;19928;-43
2022/09/05 01:06:59;;;;;;;;;;;;;;;17.45;84.79;101802.44;5023994;28;19916;-41
2022/09/05 01:09:36;;;;;;;;;;;;;;;17.45;86.97;101802.44;5033883;28;19917;-45
2022/09/05 01:12:10;;;;;;;;;;;;;;;17.42;85.48;101800.09;5033727;28;19922;-42
2022/09/05 01:15:02;;;;;;;;;;;;;;;17.37;85.80;101804.38;5034907;28;20326;-42
2022/09/05 01:17:36;;;;;;;;;;;;;;;17.34;87.32;101803.72;5034509;28;19916;-46
2022/09/05 01:20:16;;;;;;;;;;;;;;;17.34;86.02;101805.56;5033296;28;19925;-42
2022/09/05 01:22:53;;;;;;;;;;;;;;;17.38;87.48;101798.78;5024987;28;19916;-43
2022/09/05 01:25:28;;;;;;;;;;;;;;;17.40;86.56;101804.03;5037978;28;20359;-45
2022/09/05 01:28:07;;;;;;;;;;;;;;;17.38;86.82;101798.78;5039968;28;20548;-43
2022/09/05 01:30:36;;;;;;;;;;;;;;;17.41;87.95;101798.41;5038682;28;19919;-42
2022/09/05 01:33:20;;;;;;;;;;;;;;;17.38;87.56;101796.09;5031891;28;20414;-42
2022/09/05 01:35:53;;;;;;;;;;;;;;;17.40;87.63;101802.16;5037621;28;20512;-43
2022/09/05 01:38:19;;;;;;;;;;;;;;;17.41;86.56;101802.97;5030017;28;19909;-44
2022/09/05 01:40:52;;;;;;;;;;;;;;;17.41;85.42;101803.81;5035327;28;19920;-44
2022/09/05 01:43:17;;;;;;;;;;;;;;;17.45;86.74;101802.44;5031188;28;20383;-43
2022/09/05 01:45:50;;;;;;;;;;;;;;;17.47;87.63;101804.97;5033063;28;19924;-44
2022/09/05 01:48:35;;;;;;;;;;;;;;;17.46;87.94;101797.88;5029209;28;19913;-45
2022/09/05 01:51:19;;;;;;;;;;;;;;;17.47;86.94;101802.25;5027033;28;20303;-46
2022/09/05 01:54:06;;;;;;;;;;;;;;;17.47;87.68;101805.78;5037520;28;19952;-44
2022/09/05 01:56:32;;;;;;;;;;;;;;;17.46;88.50;101809.50;5040604;28;19916;-44
2022/09/05 01:59:00;;;;;;;;;;;;;;;17.45;86.23;101801.59;5037322;28;19923;-43
2022/09/05 02:01:43;;;;;;;;;;;;;;;17.43;85.27;101800.94;5022613;28;19913;-46
2022/09/05 02:04:14;;;;;;;;;;;;;;;17.34;85.80;101787.53;5035181;28;19923;-45
2022/09/05 02:06:58;;;;;;;;;;;;;;;17.36;86.18;101798.13;5041216;28;19912;-44
2022/09/05 02:09:29;;;;;;;;;;;;;;;17.37;86.27;101804.38;5038987;28;19927;-43
2022/09/05 02:11:59;;;;;;;;;;;;;;;17.37;88.40;101796.28;5037361;28;20002;-48
2022/09/05 02:14:38;;;;;;;;;;;;;;;17.36;86.25;101798.13;5035243;28;19974;-45
2022/09/05 02:17:15;;;;;;;;;;;;;;;17.40;86.81;101796.75;5032883;28;19967;-43
2022/09/05 02:19:48;;;;;;;;;;;;;;;17.41;86.99;101794.88;5035806;28;19969;-45
2022/09/05 02:22:17;;;;;;;;;;;;;;;17.38;86.96;101792.53;5025806;28;20433;-43
2022/09/05 02:24:52;;;;;;;;;;;;;;;17.37;87.38;101798.97;5034963;28;20425;-45
2022/09/05 02:27:23;;;;;;;;;;;;;;;17.34;88.50;101798.31;5041453;28;19936;-42
2022/09/05 02:30:08;;;;;;;;;;;;;;;17.32;86.29;101799.50;5037130;28;19920;-43
2022/09/05 02:32:40;;;;;;;;;;;;;;;17.32;86.76;101807.63;5022336;28;20023;-44
2022/09/05 02:35:13;;;;;;;;;;;;;;;17.30;87.94;101807.78;5058677;28;19917;-46
2022/09/05 02:37:42;;;;;;;;;;;;;;;17.31;86.40;101814.03;5036642;28;20342;-47
2022/09/05 02:40:26;;;;;;;;;;;;;;;17.29;87.84;101811.53;5036979;28;20030;-45
2022/09/05 02:43:14;;;;;;;;;;;;;;;17.27;87.58;101810.03;5030409;28;19928;-41
2022/09/05 02:45:43;;;;;;;;;;;;;;;17.25;88.25;101810.19;5024331;28;19930;-42
2022/09/05 02:48:27;;;;;;;;;;;;;;;17.24;86.67;101805.81;5034355;28;20346;-46
2022/09/05 02:51:25;;;;;;;;;;;;;;;17.23;88.01;101806.03;5026387;28;20078;-46
2022/09/05 02:53:53;;;;;;;;;;;;;;;17.22;90.26;101809.72;5012015;28;20521;-47
2022/09/05 02:56:28;;;;;;;;;;;;;;;17.18;89.30;101808.44;5036000;28;19908;-46
2022/09/05 02:59:00;;;;;;;;;;;;;;;17.15;88.93;101802.34;5036559;28;19916;-45
2022/09/05 03:01:26;;;;;;;;;;;;;;;17.13;89.28;101809.78;5035040;28;19943;-44
2022/09/05 03:03:57;;;;;;;;;;;;;;;17.12;90.36;101812.66;5028416;28;20323;-45
2022/09/05 03:06:32;;;;;;;;;;;;;;;17.10;89.30;101807.44;5062869;28;19967;-43
2022/09/05 03:09:00;;;;;;;;;;;;;;;17.08;88.61;101812.19;5029159;28;20590;-46
2022/09/05 03:11:44;;;;;;;;;;;;;;;17.06;89.36;101806.13;5037512;28;20931;-46
2022/09/05 03:14:28;;;;;;;;;;;;;;;17.04;87.63;101808.19;5034095;28;19947;-43
2022/09/05 03:17:08;;;;;;;;;;;;;;;17.00;91.04;101812.25;5024313;28;19908;-44
2022/09/05 03:19:52;;;;;;;;;;;;;;;16.96;89.06;101813.63;5037382;28;20292;-44
2022/09/05 03:22:36;;;;;;;;;;;;;;;16.94;90.01;101810.28;5021940;28;19924;-46
2022/09/05 03:25:10;;;;;;;;;;;;;;;16.92;88.49;101802.38;5035200;28;20309;-43
2022/09/05 03:27:38;;;;;;;;;;;;;;;16.91;90.07;101803.38;5026962;28;19917;-44
2022/09/05 03:30:10;;;;;;;;;;;;;;;16.88;91.04;101809.13;5022168;28;20317;-43
2022/09/05 03:32:35;;;;;;;;;;;;;;;16.85;90.49;101804.09;5037470;28;19913;-43
2022/09/05 03:35:19;;;;;;;;;;;;;;;16.82;91.35;101809.84;5037166;28;19974;-41
2022/09/05 03:37:47;;;;;;;;;;;;;;;16.78;91.50;101812.06;5035197;28;19913;-48
2022/09/05 03:40:35;;;;;;;;;;;;;;;16.77;92.34;101813.06;5035076;28;20471;-47
2022/09/05 03:43:00;;;;;;;;;;;;;;;16.75;92.13;101806.16;5036809;28;19924;-46
2022/09/05 03:45:29;;;;;;;;;;;;;;;16.74;93.55;101804.47;5035487;28;19911;-42
2022/09/05 03:48:00;;;;;;;;;;;;;;;16.72;90.99;101804.66;5036101;28;20347;-44
2022/09/05 03:50:32;;;;;;;;;;;;;;;16.72;92.07;101803.81;5017236;28;19905;-43
2022/09/05 03:53:14;;;;;;;;;;;;;;;16.71;92.01;101804.84;5025119;28;20047;-46
2022/09/05 03:55:53;;;;;;;;;;;;;;;16.70;93.49;101795.91;5020907;28;19940;-42
2022/09/05 03:58:40;;;;;;;;;;;;;;;16.70;93.57;101803.16;5032911;28;19919;-43
2022/09/05 04:01:16;;;;;;;;;;;;;;;16.67;95.54;101807.06;5032247;28;20376;-48
2022/09/05 04:03:44;;;;;;;;;;;;;;;16.59;93.98;101802.53;5033552;28;19913;-49
2022/09/05 04:06:28;;;;;;;;;;;;;;;16.59;95.17;101809.78;5033448;28;20295;-45
2022/09/05 04:09:00;;;;;;;;;;;;;;;16.55;95.22;101801.22;5025323;28;19928;-44
2022/09/05 04:11:28;;;;;;;;;;;;;;;16.54;95.39;101807.63;5035978;28;19912;-47
2022/09/05 04:14:13;;;;;;;;;;;;;;;16.53;96.55;101807.78;5034939;28;19919;-43
2022/09/05 04:16:58;;;;;;;;;;;;;;;16.52;94.85;101816.91;5031076;28;20356;-43
2022/09/05 04:19:37;;;;;;;;;;;;;;;16.51;93.42;101817.91;5035081;28;19919;-43
2022/09/05 04:22:16;;;;;;;;;;;;;;;16.52;94.24;101812.34;5035465;28;20004;-46
2022/09/05 04:24:47;;;;;;;;;;;;;;;16.51;94.50;101812.53;5035241;28;20355;-43
2022/09/05 04:27:12;;;;;;;;;;;;;;;16.50;94.01;101825.19;5035897;28;20102;-45
2022/09/05 04:29:48;;;;;;;;;;;;;;;16.49;94.95;101810.00;5035832;28;19982;-44
2022/09/05 04:32:32;;;;;;;;;;;;;;;16.47;95.08;101817.44;5026528;28;20003;-45
2022/09/05 04:35:18;;;;;;;;;;;;;;;16.46;94.67;101812.22;5035759;28;19924;-43
2022/09/05 04:37:47;;;;;;;;;;;;;;;16.45;95.33;101818.66;5033695;28;19908;-42
2022/09/05 04:40:33;;;;;;;;;;;;;;;16.44;94.17;101816.94;5034138;28;19921;-44
2022/09/05 04:43:01;;;;;;;;;;;;;;;16.43;94.88;101816.13;5027565;28;19916;-43
2022/09/05 04:45:29;;;;;;;;;;;;;;;16.40;96.36;101822.69;5031293;28;20159;-44
2022/09/05 04:47:58;;;;;;;;;;;;;;;16.38;95.92;101824.72;5030792;28;19912;-47
2022/09/05 04:50:24;;;;;;;;;;;;;;;16.35;91.88;101826.94;5033018;28;19939;-43
2022/09/05 04:52:52;;;;;;;;;;;;;;;16.33;94.74;101816.31;5032432;28;19916;-44
2022/09/05 04:55:25;;;;;;;;;;;;;;;16.33;93.88;101821.72;5031818;28;19969;-44
2022/09/05 04:57:57;;;;;;;;;;;;;;;16.32;96.69;101819.19;5026865;28;20657;-44
2022/09/05 05:00:38;;;;;;;;;;;;;;;16.32;94.23;101825.41;5027784;28;20406;-44
2022/09/05 05:03:11;;;;;;;;;;;;;;;16.32;95.38;101821.91;5017145;28;20388;-46
2022/09/05 05:05:48;;;;;;;;;;;;;;;16.34;94.81;101822.56;5025854;28;20419;-43
2022/09/05 05:08:18;;;;;;;;;;;;;;;16.35;95.28;101827.78;5040011;28;20341;-44
2022/09/05 05:10:50;;;;;;;;;;;;;;;16.37;94.62;101828.44;5024442;28;20189;-45
2022/09/05 05:13:19;;;;;;;;;;;;;;;16.40;93.77;101838.03;5019578;28;19917;-43
2022/09/05 05:16:05;;;;;;;;;;;;;;;16.41;94.06;101829.78;5016470;28;19995;-44
2022/09/05 05:18:43;;;;;;;;;;;;;;;16.42;92.97;101838.69;5018080;28;19919;-44
2022/09/05 05:21:12;;;;;;;;;;;;;;;16.42;92.49;101839.53;5016844;28;19921;-45
2022/09/05 05:23:37;;;;;;;;;;;;;;;16.38;97.57;101862.47;5021391;28;19928;-42
2022/09/05 05:26:05;;;;;;;;;;;;;;;16.31;96.04;101845.31;5025980;28;19916;-44
2022/09/05 05:28:42;;;;;;;;;;;;;;;16.33;94.41;101837.06;5031768;28;19954;-47
2022/09/05 05:31:12;;;;;;;;;;;;;;;16.38;95.24;101840.91;5032898;28;19912;-44
2022/09/05 05:33:38;;;;;;;;;;;;;;;16.45;95.58;101845.59;5017721;28;19936;-45
2022/09/05 05:36:06;;;;;;;;;;;;;;;16.50;95.37;101846.75;5021398;28;19924;-48
2022/09/05 05:38:31;;;;;;;;;;;;;;;16.54;96.48;101836.44;5014009;28;20341;-45
2022/09/05 05:41:02;;;;;;;;;;;;;;;16.57;96.99;101841.50;5015562;28;19917;-43
2022/09/05 05:43:36;;;;;;;;;;;;;;;16.60;96.40;101843.84;5025615;28;19916;-45
2022/09/05 05:46:01;;;;;;;;;;;;;;;16.64;96.99;101849.72;5027734;28;19916;-43
2022/09/05 05:48:32;;;;;;;;;;;;;;;16.65;96.57;101833.38;5029502;28;20284;-44
2022/09/05 05:51:12;;;;;;;;;;;;;;;16.69;96.42;101833.84;5032995;28;19938;-45
2022/09/05 05:53:37;;;;;;;;;;;;;;;16.71;98.29;101846.13;5034006;28;20164;-44
2022/09/05 05:56:09;;;;;;;;;;;;;;;16.74;98.14;101853.88;5035210;28;20473;-46
2022/09/05 05:58:51;;;;;;;;;;;;;;;16.76;97.71;101857.22;5033684;28;19940;-46
2022/09/05 06:01:34;;;;;;;;;;;;;;;16.81;99.38;101850.47;5031736;28;20409;-46
2022/09/05 06:04:15;;;;;;;;;;;;;;;16.85;97.90;101846.41;5029001;28;20362;-43
2022/09/05 06:06:43;;;;;;;;;;;;;;;16.90;96.36;101860.22;5033357;28;20312;-43
2022/09/05 06:09:14;;;;;;;;;;;;;;;16.93;99.32;101854.47;5034816;28;20819;-42
2022/09/05 06:11:51;;;;;;;;;;;;;;;16.94;99.47;101848.06;5036090;28;19912;-41
2022/09/05 06:14:37;;;;;;;;;;;;;;;17.05;99.09;101863.00;5039446;28;19996;-41
2022/09/05 06:17:15;;;;;;;;;;;;;;;17.13;99.34;101869.19;5036619;28;19920;-43
2022/09/05 06:19:49;;;;;;;;;;;;;;;17.20;99.37;101869.31;5038419;28;19916;-43
2022/09/05 06:22:18;;;;;;;;;;;;;;;17.28;99.11;101871.13;5035953;28;20416;-42
2022/09/05 06:24:43;;;;;;;;;;;;;;;17.30;99.15;101863.66;5032946;28;19912;-42
2022/09/05 06:27:08;;;;;;;;;;;;;;;17.43;98.59;101872.00;5039045;28;19919;-42
2022/09/05 06:29:39;;;;;;;;;;;;;;;17.51;98.29;101877.34;5038014;28;19975;-44
2022/09/05 06:32:10;;;;;;;;;;;;;;;17.59;98.86;101873.72;5030140;28;19915;-43
2022/09/05 06:34:52;;;;;;;;;;;;;;;17.68;97.92;101869.06;5037891;28;19908;-44
2022/09/05 06:37:32;;;;;;;;;;;;;;;17.81;97.62;101877.38;5026332;28;19913;-43
2022/09/05 06:40:19;;;;;;;;;;;;;;;17.96;97.63;101872.03;5037581;28;20024;-43
2022/09/05 06:43:03;;;;;;;;;;;;;;;18.14;96.86;101876.25;5037376;28;19909;-44
2022/09/05 06:45:57;;;;;;;;;;;;;;;18.27;95.57;101874.56;5034937;28;20016;-44
2022/09/05 06:48:38;;;;;;;;;;;;;;;18.46;95.47;101872.31;5035468;28;19909;-42
2022/09/05 06:51:16;;;;;;;;;;;;;;;18.63;94.48;101876.50;5029550;28;19916;-42
2022/09/05 06:53:59;;;;;;;;;;;;;;;18.82;93.85;101874.19;5017375;28;19913;-44
2022/09/05 06:56:50;;;;;;;;;;;;;;;19.01;92.59;101873.63;5017827;28;19975;-46
2022/09/05 06:59:21;;;;;;;;;;;;;;;19.22;92.24;101866.53;5026707;28;19920;-44
2022/09/05 07:02:07;;;;;;;;;;;;;;;19.38;91.27;101871.72;5016624;28;20143;-45
2022/09/05 07:04:39;;;;;;;;;;;;;;;19.54;90.71;101869.75;5018055;28;19905;-44
2022/09/05 07:07:09;;;;;;;;;;;;;;;19.68;89.63;101863.38;5016456;28;19935;-43
2022/09/05 07:09:52;;;;;;;;;;;;;;;19.86;89.29;101881.09;5017248;28;20328;-45
2022/09/05 07:12:28;;;;;;;;;;;;;;;20.03;88.36;101879.75;5017674;28;20117;-47
2022/09/05 07:15:00;;;;;;;;;;;;;;;20.20;87.38;101871.28;5015188;28;20226;-43
2022/09/05 07:17:44;;;;;;;;;;;;;;;20.39;86.77;101875.16;5017079;28;19909;-48
2022/09/05 07:20:18;;;;;;;;;;;;;;;20.56;84.99;101875.63;5017709;28;20292;-43
2022/09/05 07:22:49;;;;;;;;;;;;;;;20.75;85.18;101876.78;5016029;28;20003;-44
2022/09/05 07:25:20;;;;;;;;;;;;;;;20.91;84.48;101878.28;5019097;28;20248;-43
2022/09/05 07:27:55;;;;;;;;;;;;;;;21.09;84.45;101883.16;5016619;28;19909;-47
2022/09/05 07:30:20;;;;;;;;;;;;;;;21.30;80.87;101873.97;5016952;28;19929;-46
2022/09/05 07:32:53;;;;;;;;;;;;;;;21.44;80.79;101878.38;5017369;28;20115;-44
2022/09/05 07:35:25;;;;;;;;;;;;;;;21.58;77.10;101881.97;5016928;28;19931;-46
2022/09/05 07:37:56;;;;;;;;;;;;;;;21.71;75.09;101887.41;5030604;28;20256;-41
2022/09/05 07:40:22;;;;;;;;;;;;;;;21.78;73.86;101885.50;5016348;28;20125;-44
2022/09/05 07:43:00;;;;;;;;;;;;;;;21.84;74.96;101893.88;5017191;28;20316;-41
2022/09/05 07:45:28;;;;;;;;;;;;;;;21.87;73.38;101891.56;5027863;28;20344;-43
2022/09/05 07:48:12;;;;;;;;;;;;;;;21.99;73.93;101905.38;5022854;28;19919;-42
2022/09/05 07:50:46;;;;;;;;;;;;;;;22.13;74.75;101900.72;5036864;28;20446;-44
2022/09/05 07:53:13;;;;;;;;;;;;;;;22.21;72.50;101897.78;5037463;28;19920;-42
2022/09/05 07:55:40;;;;;;;;;;;;;;;22.24;73.50;101905.53;5036571;28;19923;-44
2022/09/05 07:58:06;;;;;;;;;;;;;;;22.34;72.27;101900.50;5037200;28;19923;-44
2022/09/05 08:00:32;;;;;;;;;;;;;;;22.46;73.20;101906.13;5036063;28;19960;-47
2022/09/05 08:02:59;;;;;;;;;;;;;;;22.63;72.44;101911.94;5034369;28;20461;-45
2022/09/05 08:05:27;;;;;;;;;;;;;;;22.77;70.98;101914.59;5036684;28;19909;-46
2022/09/05 08:07:58;;;;;;;;;;;;;;;22.89;73.30;101910.13;5034673;28;20345;-43
2022/09/05 08:10:29;;;;;;;;;;;;;;;23.13;68.64;101916.72;5035971;28;19966;-46
2022/09/05 08:13:01;;;;;;;;;;;;;;;23.29;68.09;101915.38;5036658;28;20167;-45
2022/09/05 08:15:27;;;;;;;;;;;;;;;23.51;65.92;101909.59;5035601;28;19913;-44
2022/09/05 08:18:02;;;;;;;;;;;;;;;23.65;66.74;101895.59;5035975;28;19912;-44
2022/09/05 08:20:27;;;;;;;;;;;;;;;23.81;65.91;101896.97;5035372;28;19927;-46
2022/09/05 08:22:57;;;;;;;;;;;;;;;23.96;66.43;101893.03;5034748;28;19913;-45
2022/09/05 08:25:28;;;;;;;;;;;;;;;24.14;66.29;101895.78;5036010;28;19966;-45
2022/09/05 08:28:00;;;;;;;;;;;;;;;24.36;66.51;101900.81;5034075;28;19944;-47
2022/09/05 08:30:26;;;;;;;;;;;;;;;24.58;65.16;101904.78;5032698;28;19913;-44
2022/09/05 08:32:57;;;;;;;;;;;;;;;24.81;60.47;101905.94;5032879;28;19959;-47
2022/09/05 08:35:29;;;;;;;;;;;;;;;24.93;63.79;101908.72;5025904;28;20376;-43
2022/09/05 08:37:55;;;;;;;;;;;;;;;25.05;62.97;101912.38;5015562;28;20398;-45
2022/09/05 08:40:26;;;;;;;;;;;;;;;25.19;58.42;101912.19;5015265;28;19947;-45
2022/09/05 08:42:58;;;;;;;;;;;;;;;25.33;60.02;101916.38;5016044;28;19912;-46
2022/09/05 08:45:36;;;;;;;;;;;;;;;25.52;59.03;101914.41;5015143;28;20044;-44
2022/09/05 08:48:19;;;;;;;;;;;;;;;25.73;58.05;101912.16;5022185;28;19909;-43
2022/09/05 08:50:54;;;;;;;;;;;;;;;25.83;56.29;101905.06;5015487;28;19940;-44
2022/09/05 08:53:19;;;;;;;;;;;;;;;25.95;55.78;101899.59;5014460;28;20189;-44
2022/09/05 08:55:49;;;;;;;;;;;;;;;26.03;57.64;101896.47;5015855;28;19986;-43
2022/09/05 08:58:14;;;;;;;;;;;;;;;26.18;56.47;101892.44;5016171;28;19915;-45
2022/09/05 09:00:51;;;;;;;;;;;;;;;26.30;54.77;101878.72;5014539;28;20428;-42
2022/09/05 09:03:37;;;;;;;;;;;;;;;26.38;53.57;101887.41;5016476;28;20159;-43
2022/09/05 09:06:05;;;;;;;;;;;;;;;26.41;57.64;101878.69;5015479;28;20348;-45
2022/09/05 09:08:30;;;;;;;;;;;;;;;26.54;52.50;101885.78;5014656;28;19922;-46
2022/09/05 09:11:01;;;;;;;;;;;;;;;26.67;54.42;101881.16;5015337;28;19990;-45
2022/09/05 09:13:27;;;;;;;;;;;;;;;26.77;55.60;101878.59;5015511;28;19921;-46
2022/09/05 09:16:03;;;;;;;;;;;;;;;26.91;49.32;101877.22;5013335;28;20390;-45
2022/09/05 09:18:37;;;;;;;;;;;;;;;26.95;48.89;101883.03;5015520;28;19909;-44
2022/09/05 09:21:21;;;;;;;;;;;;;;;27.02;52.36;101880.16;5015049;28;19929;-45
2022/09/05 09:24:05;;;;;;;;;;;;;;;27.10;47.54;101883.31;5015261;28;19917;-43
2022/09/05 09:26:34;;;;;;;;;;;;;;;27.13;47.81;101873.78;5032577;28;19908;-48
2022/09/05 09:29:07;;;;;;;;;;;;;;;27.26;49.16;101876.22;5031245;28;19939;-45
2022/09/05 09:31:51;;;;;;;;;;;;;;;27.40;44.57;101873.16;5027305;28;19912;-45
2022/09/05 09:34:19;;;;;;;;;;;;;;;27.43;45.07;101868.00;5032750;28;19908;-45
2022/09/05 09:37:03;;;;;;;;;;;;;;;27.51;48.63;101873.09;5031707;28;19921;-46
2022/09/05 09:39:37;;;;;;;;;;;;;;;27.71;45.34;101860.75;5033362;28;20204;-43
2022/09/05 09:42:09;;;;;;;;;;;;;;;27.77;40.55;101861.63;5028712;28;20003;-47
2022/09/05 09:44:51;;;;;;;;;;;;;;;27.77;41.54;101861.63;5014947;28;19913;-46
2022/09/05 09:47:21;;;;;;;;;;;;;;;27.85;42.84;101863.97;5020786;28;19913;-47
2022/09/05 09:49:46;;;;;;;;;;;;;;;27.85;39.18;101855.72;5034558;28;19932;-46
2022/09/05 09:52:41;;;;;;;;;;;;;;;27.96;42.54;101860.31;5022769;28;19909;-46
2022/09/05 09:55:12;;;;;;;;;;;;;;;28.16;40.50;101858.91;5016145;28;19913;-45
2022/09/05 09:57:43;;;;;;;;;;;;;;;28.20;39.08;101863.66;5018875;28;20395;-48
2022/09/05 10:00:22;;;;;;;;;;;;;;;28.37;39.71;101860.00;5018465;28;20075;-44
2022/09/05 10:03:03;;;;;;;;;;;;;;;28.54;39.91;101858.00;5018503;28;20350;-44
2022/09/05 10:05:51;;;;;;;;;;;;;;;28.75;38.00;101856.38;5017754;28;20173;-45
2022/09/05 10:08:22;;;;;;;;;;;;;;;28.93;39.98;101859.81;5017483;28;20391;-44
2022/09/05 10:10:48;;;;;;;;;;;;;;;29.07;40.22;101849.22;5019074;28;20348;-43
2022/09/05 10:13:32;;;;;;;;;;;;;;;29.20;39.72;101841.41;5019119;28;19913;-45
2022/09/05 10:15:57;;;;;;;;;;;;;;;29.37;36.65;101837.69;5017737;28;20100;-47
2022/09/05 10:18:31;;;;;;;;;;;;;;;29.46;37.21;101844.34;5017776;28;20379;-43
2022/09/05 10:20:56;;;;;;;;;;;;;;;29.59;36.85;101834.81;5018793;28;20268;-44
2022/09/05 10:23:30;;;;;;;;;;;;;;;29.64;35.10;101823.81;5017675;28;19909;-48
2022/09/05 10:26:04;;;;;;;;;;;;;;;29.70;35.03;101832.94;5018666;28;19924;-45
2022/09/05 10:28:47;;;;;;;;;;;;;;;29.80;34.33;101834.97;5018090;28;19913;-47
2022/09/05 10:31:20;;;;;;;;;;;;;;;29.91;34.48;101829.22;5017699;28;20000;-47
2022/09/05 10:34:03;;;;;;;;;;;;;;;29.94;33.92;101817.69;5025039;28;20379;-46
2022/09/05 10:36:32;;;;;;;;;;;;;;;30.03;33.21;101822.69;5048352;28;20110;-49
2022/09/05 10:39:00;;;;;;;;;;;;;;;30.01;32.18;101822.09;5018258;28;19963;-43
2022/09/05 10:41:38;;;;;;;;;;;;;;;30.02;33.83;101821.84;5018061;28;19913;-47
2022/09/05 10:44:05;;;;;;;;;;;;;;;30.22;32.44;101817.53;5023844;28;20021;-44
2022/09/05 10:46:50;;;;;;;;;;;;;;;30.37;34.41;101820.34;5022737;28;19999;-44
2022/09/05 10:49:20;;;;;;;;;;;;;;;30.62;33.71;101825.09;5022404;28;20195;-46
2022/09/05 10:52:00;;;;;;;;;;;;;;;30.60;33.46;101824.56;5036100;28;19909;-44
2022/09/05 10:54:32;;;;;;;;;;;;;;;30.71;31.89;101821.81;5069089;28;20355;-46
2022/09/05 10:57:17;;;;;;;;;;;;;;;30.84;31.80;101821.28;5035770;28;19913;-47
2022/09/05 10:59:48;;;;;;;;;;;;;;;30.95;30.49;101824.91;5035872;28;20152;-48
2022/09/05 11:02:16;;;;;;;;;;;;;;;30.71;31.20;101819.88;5031187;28;20007;-47
2022/09/05 11:04:49;;;;;;;;;;;;;;;30.52;32.14;101810.44;5037094;28;19917;-45
2022/09/05 11:07:17;;;;;;;;;;;;;;;30.49;30.95;101803.56;5034113;28;19916;-47
2022/09/05 11:10:00;;;;;;;;;;;;;;;30.55;33.55;101808.00;5036605;28;20277;-44
2022/09/05 11:12:32;;;;;;;;;;;;;;;30.78;32.80;101797.53;5037364;28;19970;-48
2022/09/05 11:15:01;;;;;;;;;;;;;;;31.02;33.00;101801.44;5036735;28;20119;-49
2022/09/05 11:17:38;;;;;;;;;;;;;;;31.13;32.49;101796.75;5036969;28;19916;-46
2022/09/05 11:20:15;;;;;;;;;;;;;;;31.23;32.76;101793.97;5036022;28;19916;-47
2022/09/05 11:22:44;;;;;;;;;;;;;;;31.34;31.33;101802.25;5031168;28;19944;-49
2022/09/05 11:25:36;;;;;;;;;;;;;;;31.42;30.31;101797.00;5016742;28;19982;-47
2022/09/05 11:28:22;;;;;;;;;;;;;;;31.37;30.69;101793.41;5013063;28;20189;-46
2022/09/05 11:30:50;;;;;;;;;;;;;;;31.30;29.74;101795.63;5020852;28;20010;-47
2022/09/05 11:33:15;;;;;;;;;;;;;;;31.18;31.84;101794.00;5028423;28;19928;-46
2022/09/05 11:35:40;;;;;;;;;;;;;;;31.24;32.34;101792.03;5033824;28;19913;-48
2022/09/05 11:38:08;;;;;;;;;;;;;;;31.33;29.81;101793.16;5033985;28;19919;-45
2022/09/05 11:40:52;;;;;;;;;;;;;;;31.23;29.44;101793.97;5034878;28;19917;-44
2022/09/05 11:43:20;;;;;;;;;;;;;;;31.02;29.64;101792.34;5030966;28;19992;-46
2022/09/05 11:46:00;;;;;;;;;;;;;;;30.91;30.85;101788.72;5015129;28;19905;-46
2022/09/05 11:48:31;;;;;;;;;;;;;;;30.98;30.81;101780.22;5016453;28;19967;-45
2022/09/05 11:50:57;;;;;;;;;;;;;;;31.09;30.70;101787.34;5015703;28;19913;-47
2022/09/05 11:53:22;;;;;;;;;;;;;;;31.33;30.45;101786.78;5014449;28;20323;-45
2022/09/05 11:56:11;;;;;;;;;;;;;;;31.42;29.51;101793.41;5014561;28;19916;-45
2022/09/05 11:58:55;;;;;;;;;;;;;;;31.34;30.70;101782.94;5015971;28;19905;-46
2022/09/05 12:01:20;;;;;;;;;;;;;;;31.57;31.90;101785.13;5014609;28;20257;-45
2022/09/05 12:03:57;;;;;;;;;;;;;;;31.74;30.53;101782.03;5015462;28;19909;-45
2022/09/05 12:06:41;;;;;;;;;;;;;;;31.99;29.16;101785.78;5015180;28;19948;-47
2022/09/05 12:09:17;;;;;;;;;;;;;;;31.91;29.15;101784.44;5013659;28;20379;-44
2022/09/05 12:11:58;;;;;;;;;;;;;;;32.16;30.09;101786.28;5016278;28;19931;-44
2022/09/05 12:14:34;;;;;;;;;;;;;;;32.46;29.54;101781.69;5018337;28;19913;-46
2022/09/05 12:17:18;;;;;;;;;;;;;;;32.63;29.75;101769.44;5014478;28;20189;-46
2022/09/05 12:19:50;;;;;;;;;;;;;;;32.85;28.46;101766.22;5016530;28;19917;-46
2022/09/05 12:22:26;;;;;;;;;;;;;;;33.01;28.28;101767.75;5014671;28;20350;-48
2022/09/05 12:25:10;;;;;;;;;;;;;;;33.04;30.44;101756.06;5015461;28;19938;-45
2022/09/05 12:27:38;;;;;;;;;;;;;;;33.17;30.05;101764.84;5014291;28;20321;-47
2022/09/05 12:30:07;;;;;;;;;;;;;;;33.21;27.11;101754.81;5013961;28;20272;-44
2022/09/05 12:32:45;;;;;;;;;;;;;;;33.12;28.73;101757.38;5014110;28;20012;-45
2022/09/05 12:35:10;;;;;;;;;;;;;;;33.34;28.38;101764.41;5013632;28;20449;-46
2022/09/05 12:37:38;;;;;;;;;;;;;;;33.65;26.25;101757.38;5012819;28;19913;-44
2022/09/05 12:40:13;;;;;;;;;;;;;;;33.79;27.28;101754.75;5012752;28;20567;-43
2022/09/05 12:42:41;;;;;;;;;;;;;;;34.08;27.88;101759.38;5012916;28;20623;-45
2022/09/05 12:45:29;;;;;;;;;;;;;;;34.61;26.29;101749.16;5027719;28;19974;-44
2022/09/05 12:48:03;;;;;;;;;;;;;;;35.59;26.02;101760.19;5029123;28;20383;-46
2022/09/05 12:50:37;;;;;;;;;;;;;;;36.37;26.38;101754.63;5016590;28;19917;-43
2022/09/05 12:53:06;;;;;;;;;;;;;;;37.37;23.38;101749.03;5022735;28;19921;-44
2022/09/05 12:55:35;;;;;;;;;;;;;;;37.83;23.18;101750.50;5011413;28;19975;-49
2022/09/05 12:58:01;;;;;;;;;;;;;;;38.30;22.79;101750.72;5031093;28;19915;-47
2022/09/05 13:00:39;;;;;;;;;;;;;;;38.82;20.89;101749.88;5030416;28;20466;-47
2022/09/05 13:03:06;;;;;;;;;;;;;;;38.75;21.03;101755.13;5029183;28;20045;-44
2022/09/05 13:05:52;;;;;;;;;;;;;;;38.90;22.53;101751.81;5033746;28;19912;-44
2022/09/05 13:08:20;;;;;;;;;;;;;;;39.64;23.13;101746.13;5029447;28;20407;-45
2022/09/05 13:10:49;;;;;;;;;;;;;;;40.34;22.25;101746.41;5030253;28;20422;-44